LIRF

Rome/Fiumicino Airport

Airport
ICAO code
LIRF
IATA Code
FCO
Summary
ICAO Region
EUR
ICAO Territory
Location

Fiumicino, Lazio

Serving
Rome
Elevation
13 ft
Coordinates
41° 48' 2" N , 12° 14' 35" E
KCC
Csa
Metar
Observation
LIRF 082020Z 02004KT 350V050 CAVOK 25/16 Q1013 NOSIG
Station
Roma Fiumicino
Date/Time
2022-08-08 20:20:00
Wind direction
20°
Wind speed
04 kts
Lowest cloud amount
clouds and visibility OK
Temperature
25°C
Dew point
16°C
Humidity
57%
QNH
1013 hPa
Weather condition
n/a

Main international airport serving Rome.

Climatology

Dry-summer subtropical ”Mediterranean" climate (Köppen climate classification Csa) - characterized by hot, dry summers and mild winters. During the summer, subtropical high pressure cells dominate, making rainfall unlikely except for the occasional thunderstorm. In the winter, periodic storms bring rain (snow at higher elevations).

Runways

Designator Length Width Surface Rops
16C/34C 0 0 UNK Yes/Yes
7/25 3309 45 ASP Yes/Yes
16L/34R 3900 60 ASP Yes/Yes
16R/34L 3900 60 ASP Yes/Yes

Airport map

Aerial View

SKYbrary Partners:

Safety knowledge contributed by: